sensor_id;sensor_type;location;lat;lon;timestamp;pressure;altitude;pressure_sealevel;temperature;humidity
56668;BME280;42542;48.360;10.958;2023-04-28T00:00:18;96094.13;;;8.37;87.50
56668;BME280;42542;48.360;10.958;2023-04-28T00:03:20;96093.28;;;8.37;87.82
56668;BME280;42542;48.360;10.958;2023-04-28T00:06:23;96090.63;;;8.37;87.34
56668;BME280;42542;48.360;10.958;2023-04-28T00:09:24;96080.44;;;8.32;88.13
56668;BME280;42542;48.360;10.958;2023-04-28T00:12:26;96087.44;;;8.33;87.74
56668;BME280;42542;48.360;10.958;2023-04-28T00:15:29;96087.44;;;8.33;88.18
56668;BME280;42542;48.360;10.958;2023-04-28T00:18:32;96091.63;;;8.36;87.84
56668;BME280;42542;48.360;10.958;2023-04-28T00:21:35;96087.97;;;8.37;88.05
56668;BME280;42542;48.360;10.958;2023-04-28T00:24:40;96090.81;;;8.35;88.24
56668;BME280;42542;48.360;10.958;2023-04-28T00:27:43;96084.47;;;8.36;89.04
56668;BME280;42542;48.360;10.958;2023-04-28T00:30:47;96091.47;;;8.37;88.89
56668;BME280;42542;48.360;10.958;2023-04-28T00:33:49;96082.81;;;8.35;88.85
56668;BME280;42542;48.360;10.958;2023-04-28T00:36:51;96079.97;;;8.37;89.27
56668;BME280;42542;48.360;10.958;2023-04-28T00:39:55;96075.63;;;8.36;89.15
56668;BME280;42542;48.360;10.958;2023-04-28T00:42:58;96062.63;;;8.33;88.98
56668;BME280;42542;48.360;10.958;2023-04-28T00:46:04;96062.19;;;8.37;89.26
56668;BME280;42542;48.360;10.958;2023-04-28T00:49:06;96075.34;;;8.39;88.98
56668;BME280;42542;48.360;10.958;2023-04-28T00:52:08;96057.84;;;8.36;89.25
56668;BME280;42542;48.360;10.958;2023-04-28T00:55:14;96056.69;;;8.39;89.97
56668;BME280;42542;48.360;10.958;2023-04-28T00:58:18;96052.50;;;8.36;89.73
56668;BME280;42542;48.360;10.958;2023-04-28T01:01:24;96039.38;;;8.35;89.65
56668;BME280;42542;48.360;10.958;2023-04-28T01:04:26;96049.69;;;8.38;89.02
56668;BME280;42542;48.360;10.958;2023-04-28T01:07:30;96037.53;;;8.35;89.68
56668;BME280;42542;48.360;10.958;2023-04-28T01:10:34;96037.38;;;8.37;89.91
56668;BME280;42542;48.360;10.958;2023-04-28T01:13:45;96025.03;;;8.36;89.39
56668;BME280;42542;48.360;10.958;2023-04-28T01:16:47;96014.38;;;8.36;89.99
56668;BME280;42542;48.360;10.958;2023-04-28T01:19:50;96005.59;;;8.35;89.87
56668;BME280;42542;48.360;10.958;2023-04-28T01:22:54;95999.41;;;8.35;89.62
56668;BME280;42542;48.360;10.958;2023-04-28T01:25:56;96003.72;;;8.36;90.02
56668;BME280;42542;48.360;10.958;2023-04-28T01:28:58;96011.72;;;8.36;89.87
56668;BME280;42542;48.360;10.958;2023-04-28T01:32:04;96005.41;;;8.37;90.21
56668;BME280;42542;48.360;10.958;2023-04-28T01:35:07;96003.72;;;8.36;90.31
56668;BME280;42542;48.360;10.958;2023-04-28T01:38:11;96007.91;;;8.38;90.39
56668;BME280;42542;48.360;10.958;2023-04-28T01:41:14;96012.25;;;8.39;90.79
56668;BME280;42542;48.360;10.958;2023-04-28T01:44:17;96023.75;;;8.40;90.37
56668;BME280;42542;48.360;10.958;2023-04-28T01:47:22;96026.28;;;8.41;90.22
56668;BME280;42542;48.360;10.958;2023-04-28T01:50:25;96030.91;;;8.39;90.55
56668;BME280;42542;48.360;10.958;2023-04-28T01:53:27;96031.44;;;8.43;90.70
56668;BME280;42542;48.360;10.958;2023-04-28T01:56:29;96025.28;;;8.42;90.91
56668;BME280;42542;48.360;10.958;2023-04-28T01:59:32;96032.13;;;8.45;90.96
56668;BME280;42542;48.360;10.958;2023-04-28T02:02:34;96022.28;;;8.45;90.90
56668;BME280;42542;48.360;10.958;2023-04-28T02:05:36;96024.34;;;8.51;91.53
56668;BME280;42542;48.360;10.958;2023-04-28T02:08:39;96010.88;;;8.53;90.33
56668;BME280;42542;48.360;10.958;2023-04-28T02:11:40;96002.88;;;8.53;90.73
56668;BME280;42542;48.360;10.958;2023-04-28T02:14:42;95989.19;;;8.48;90.27
56668;BME280;42542;48.360;10.958;2023-04-28T02:17:45;95989.56;;;8.53;90.19
56668;BME280;42542;48.360;10.958;2023-04-28T02:20:48;95972.22;;;8.49;91.21
56668;BME280;42542;48.360;10.958;2023-04-28T02:23:51;95962.78;;;8.54;90.86
56668;BME280;42542;48.360;10.958;2023-04-28T02:26:54;95971.47;;;8.56;90.68
56668;BME280;42542;48.360;10.958;2023-04-28T02:29:56;95979.97;;;8.60;90.82
56668;BME280;42542;48.360;10.958;2023-04-28T02:33:01;95981.50;;;8.63;91.37
56668;BME280;42542;48.360;10.958;2023-04-28T02:36:04;95992.66;;;8.66;91.81
56668;BME280;42542;48.360;10.958;2023-04-28T02:39:06;95989.84;;;8.68;91.97
56668;BME280;42542;48.360;10.958;2023-04-28T02:42:08;95982.69;;;8.68;91.83
56668;BME280;42542;48.360;10.958;2023-04-28T02:45:12;95967.06;;;8.73;92.22
56668;BME280;42542;48.360;10.958;2023-04-28T02:48:15;95970.56;;;8.74;92.12
56668;BME280;42542;48.360;10.958;2023-04-28T02:51:17;95974.59;;;8.78;92.76
56668;BME280;42542;48.360;10.958;2023-04-28T02:54:20;95982.25;;;8.81;93.14
56668;BME280;42542;48.360;10.958;2023-04-28T02:57:29;95989.13;;;8.83;93.06
56668;BME280;42542;48.360;10.958;2023-04-28T03:00:31;95987.44;;;8.82;93.82
56668;BME280;42542;48.360;10.958;2023-04-28T03:03:33;95978.59;;;8.82;93.00
56668;BME280;42542;48.360;10.958;2023-04-28T03:06:35;95980.78;;;8.86;93.24
56668;BME280;42542;48.360;10.958;2023-04-28T03:09:37;95972.50;;;8.89;94.01
56668;BME280;42542;48.360;10.958;2023-04-28T03:12:43;95968.84;;;8.90;94.11
56668;BME280;42542;48.360;10.958;2023-04-28T03:15:45;95978.38;;;8.93;94.60
56668;BME280;42542;48.360;10.958;2023-04-28T03:18:47;95987.34;;;8.92;94.72
56668;BME280;42542;48.360;10.958;2023-04-28T03:21:50;95984.19;;;8.96;94.98
56668;BME280;42542;48.360;10.958;2023-04-28T03:24:53;95996.53;;;8.97;94.96
56668;BME280;42542;48.360;10.958;2023-04-28T03:27:55;95987.41;;;9.00;95.56
56668;BME280;42542;48.360;10.958;2023-04-28T03:30:58;95984.56;;;9.01;95.30
56668;BME280;42542;48.360;10.958;2023-04-28T03:34:04;95980.06;;;9.02;96.04
56668;BME280;42542;48.360;10.958;2023-04-28T03:37:06;95982.56;;;9.04;96.55
56668;BME280;42542;48.360;10.958;2023-04-28T03:40:09;95992.94;;;9.07;97.37
56668;BME280;42542;48.360;10.958;2023-04-28T03:43:33;95976.94;;;9.07;97.26
56668;BME280;42542;48.360;10.958;2023-04-28T03:46:49;95954.44;;;9.09;98.12
56668;BME280;42542;48.360;10.958;2023-04-28T03:49:51;95949.09;;;9.09;97.34
56668;BME280;42542;48.360;10.958;2023-04-28T03:52:56;95951.63;;;9.11;97.42
56668;BME280;42542;48.360;10.958;2023-04-28T03:56:00;95952.44;;;9.11;98.50
56668;BME280;42542;48.360;10.958;2023-04-28T03:59:02;95936.47;;;9.11;98.85
56668;BME280;42542;48.360;10.958;2023-04-28T04:02:04;95937.97;;;9.14;98.76
56668;BME280;42542;48.360;10.958;2023-04-28T04:05:07;95935.13;;;9.15;99.44
56668;BME280;42542;48.360;10.958;2023-04-28T04:08:09;95934.31;;;9.15;98.40
56668;BME280;42542;48.360;10.958;2023-04-28T04:11:19;95940.31;;;9.17;98.97
56668;BME280;42542;48.360;10.958;2023-04-28T04:14:22;95934.47;;;9.13;98.92
56668;BME280;42542;48.360;10.958;2023-04-28T04:17:23;95933.97;;;9.18;98.94
56668;BME280;42542;48.360;10.958;2023-04-28T04:20:26;95929.50;;;9.18;99.58
56668;BME280;42542;48.360;10.958;2023-04-28T04:23:28;95939.31;;;9.18;98.36
56668;BME280;42542;48.360;10.958;2023-04-28T04:26:30;95931.81;;;9.13;98.39
56668;BME280;42542;48.360;10.958;2023-04-28T04:29:32;95940.84;;;9.20;99.23
56668;BME280;42542;48.360;10.958;2023-04-28T04:32:40;95953.34;;;9.20;99.60
56668;BME280;42542;48.360;10.958;2023-04-28T04:35:41;95953.00;;;9.23;99.32
56668;BME280;42542;48.360;10.958;2023-04-28T04:38:44;95959.16;;;9.23;99.57
56668;BME280;42542;48.360;10.958;2023-04-28T04:41:49;95962.66;;;9.24;99.83
56668;BME280;42542;48.360;10.958;2023-04-28T04:45:25;95956.50;;;9.23;99.93
56668;BME280;42542;48.360;10.958;2023-04-28T04:48:28;95959.16;;;9.23;99.58
56668;BME280;42542;48.360;10.958;2023-04-28T04:51:32;95959.16;;;9.23;99.53
56668;BME280;42542;48.360;10.958;2023-04-28T04:54:35;95970.66;;;9.24;98.99
56668;BME280;42542;48.360;10.958;2023-04-28T04:57:38;95960.00;;;9.24;98.61
56668;BME280;42542;48.360;10.958;2023-04-28T05:00:44;95970.66;;;9.24;99.10
56668;BME280;42542;48.360;10.958;2023-04-28T05:03:48;95956.00;;;9.20;100.00
56668;BME280;42542;48.360;10.958;2023-04-28T05:06:49;95959.84;;;9.25;99.95
56668;BME280;42542;48.360;10.958;2023-04-28T05:09:53;95948.69;;;9.22;100.00
56668;BME280;42542;48.360;10.958;2023-04-28T05:12:54;95951.69;;;9.27;99.24
56668;BME280;42542;48.360;10.958;2023-04-28T05:15:58;95948.03;;;9.28;99.88
56668;BME280;42542;48.360;10.958;2023-04-28T05:19:15;95949.34;;;9.24;98.97
56668;BME280;42542;48.360;10.958;2023-04-28T05:22:17;95951.69;;;9.27;98.88
56668;BME280;42542;48.360;10.958;2023-04-28T05:25:19;95983.38;;;9.30;99.66
56668;BME280;42542;48.360;10.958;2023-04-28T05:28:21;95981.38;;;9.32;100.00
56668;BME280;42542;48.360;10.958;2023-04-28T05:31:26;95962.56;;;9.33;100.00
56668;BME280;42542;48.360;10.958;2023-04-28T05:34:29;95963.25;;;9.35;99.79
56668;BME280;42542;48.360;10.958;2023-04-28T05:37:33;95950.91;;;9.34;100.00
56668;BME280;42542;48.360;10.958;2023-04-28T05:40:36;95955.88;;;9.37;100.00
56668;BME280;42542;48.360;10.958;2023-04-28T05:43:37;95950.25;;;9.40;100.00
56668;BME280;42542;48.360;10.958;2023-04-28T05:46:40;95954.44;;;9.43;100.00
56668;BME280;42542;48.360;10.958;2023-04-28T05:49:44;95952.41;;;9.45;100.00
56668;BME280;42542;48.360;10.958;2023-04-28T05:52:48;95951.44;;;9.46;100.00
56668;BME280;42542;48.360;10.958;2023-04-28T05:55:50;95930.44;;;9.43;100.00
56668;BME280;42542;48.360;10.958;2023-04-28T05:58:56;95928.59;;;9.44;100.00
56668;BME280;42542;48.360;10.958;2023-04-28T06:02:00;95943.75;;;9.51;100.00
56668;BME280;42542;48.360;10.958;2023-04-28T06:05:04;95943.31;;;9.56;100.00
56668;BME280;42542;48.360;10.958;2023-04-28T06:08:12;95947.31;;;9.60;100.00
56668;BME280;42542;48.360;10.958;2023-04-28T06:11:15;95947.66;;;9.65;100.00
56668;BME280;42542;48.360;10.958;2023-04-28T06:14:17;95942.66;;;9.70;100.00
56668;BME280;42542;48.360;10.958;2023-04-28T06:17:20;95937.81;;;9.73;100.00
56668;BME280;42542;48.360;10.958;2023-04-28T06:20:23;95937.34;;;9.78;100.00
56668;BME280;42542;48.360;10.958;2023-04-28T06:23:35;95934.03;;;9.84;100.00
56668;BME280;42542;48.360;10.958;2023-04-28T06:26:37;95932.53;;;9.90;100.00
56668;BME280;42542;48.360;10.958;2023-04-28T06:29:44;95934.53;;;9.96;100.00
56668;BME280;42542;48.360;10.958;2023-04-28T06:32:46;95930.19;;;10.03;100.00
56668;BME280;42542;48.360;10.958;2023-04-28T06:35:52;95922.34;;;10.09;100.00
56668;BME280;42542;48.360;10.958;2023-04-28T06:38:54;95922.41;;;10.17;100.00
56668;BME280;42542;48.360;10.958;2023-04-28T06:41:56;95914.38;;;10.26;100.00
56668;BME280;42542;48.360;10.958;2023-04-28T06:45:02;95910.72;;;10.35;100.00
56668;BME280;42542;48.360;10.958;2023-04-28T06:48:04;95912.03;;;10.39;100.00
56668;BME280;42542;48.360;10.958;2023-04-28T06:51:13;95917.91;;;10.50;100.00
56668;BME280;42542;48.360;10.958;2023-04-28T06:54:15;95922.41;;;10.58;100.00
56668;BME280;42542;48.360;10.958;2023-04-28T06:57:18;95912.03;;;10.63;100.00
56668;BME280;42542;48.360;10.958;2023-04-28T07:00:23;95926.06;;;10.73;100.00
56668;BME280;42542;48.360;10.958;2023-04-28T07:03:25;95922.03;;;10.77;100.00
56668;BME280;42542;48.360;10.958;2023-04-28T07:06:28;95938.22;;;10.84;100.00
56668;BME280;42542;48.360;10.958;2023-04-28T07:09:34;95944.38;;;10.92;100.00
56668;BME280;42542;48.360;10.958;2023-04-28T07:12:36;95943.19;;;10.95;100.00
56668;BME280;42542;48.360;10.958;2023-04-28T07:15:38;95936.84;;;10.96;100.00
56668;BME280;42542;48.360;10.958;2023-04-28T07:18:41;95938.19;;;11.00;100.00
56668;BME280;42542;48.360;10.958;2023-04-28T07:21:45;95941.31;;;11.04;100.00
56668;BME280;42542;48.360;10.958;2023-04-28T07:24:47;95938.81;;;11.10;100.00
56668;BME280;42542;48.360;10.958;2023-04-28T07:27:50;95931.81;;;11.09;100.00
56668;BME280;42542;48.360;10.958;2023-04-28T07:30:54;95930.91;;;11.17;100.00
56668;BME280;42542;48.360;10.958;2023-04-28T07:33:56;95922.56;;;11.20;100.00
56668;BME280;42542;48.360;10.958;2023-04-28T07:36:59;95910.69;;;11.22;100.00
56668;BME280;42542;48.360;10.958;2023-04-28T07:40:04;95904.34;;;11.23;100.00
56668;BME280;42542;48.360;10.958;2023-04-28T07:43:09;95910.81;;;11.29;100.00
56668;BME280;42542;48.360;10.958;2023-04-28T07:46:11;95906.31;;;11.29;100.00
56668;BME280;42542;48.360;10.958;2023-04-28T07:49:14;95902.94;;;11.35;100.00
56668;BME280;42542;48.360;10.958;2023-04-28T07:52:19;95896.59;;;11.37;100.00
56668;BME280;42542;48.360;10.958;2023-04-28T07:55:21;95890.03;;;11.39;100.00
56668;BME280;42542;48.360;10.958;2023-04-28T07:58:23;95885.88;;;11.37;100.00
56668;BME280;42542;48.360;10.958;2023-04-28T08:01:24;95903.06;;;11.42;100.00
56668;BME280;42542;48.360;10.958;2023-04-28T08:04:27;95897.38;;;11.45;100.00
56668;BME280;42542;48.360;10.958;2023-04-28T08:07:29;95888.97;;;11.48;100.00
56668;BME280;42542;48.360;10.958;2023-04-28T08:10:31;95886.13;;;11.50;100.00
56668;BME280;42542;48.360;10.958;2023-04-28T08:13:33;95884.97;;;11.52;100.00
56668;BME280;42542;48.360;10.958;2023-04-28T08:16:35;95882.09;;;11.54;100.00
56668;BME280;42542;48.360;10.958;2023-04-28T08:19:39;95863.56;;;11.52;100.00
56668;BME280;42542;48.360;10.958;2023-04-28T08:22:41;95853.66;;;11.53;100.00
56668;BME280;42542;48.360;10.958;2023-04-28T08:25:45;95854.16;;;11.56;100.00
56668;BME280;42542;48.360;10.958;2023-04-28T08:28:51;95844.72;;;11.60;100.00
56668;BME280;42542;48.360;10.958;2023-04-28T08:31:55;95852.09;;;11.66;100.00
56668;BME280;42542;48.360;10.958;2023-04-28T08:34:57;95846.00;;;11.72;100.00
56668;BME280;42542;48.360;10.958;2023-04-28T08:38:06;95850.69;;;11.79;100.00
56668;BME280;42542;48.360;10.958;2023-04-28T08:41:17;95847.13;;;11.86;100.00
56668;BME280;42542;48.360;10.958;2023-04-28T08:44:20;95849.63;;;11.88;100.00
56668;BME280;42542;48.360;10.958;2023-04-28T08:47:34;95847.91;;;11.95;100.00
56668;BME280;42542;48.360;10.958;2023-04-28T08:50:38;95848.72;;;11.95;100.00
56668;BME280;42542;48.360;10.958;2023-04-28T08:53:44;95841.16;;;11.99;100.00
56668;BME280;42542;48.360;10.958;2023-04-28T08:57:10;95838.97;;;12.02;100.00
56668;BME280;42542;48.360;10.958;2023-04-28T09:00:15;95834.91;;;12.06;100.00
56668;BME280;42542;48.360;10.958;2023-04-28T09:03:17;95835.56;;;12.08;100.00
56668;BME280;42542;48.360;10.958;2023-04-28T09:06:23;95837.69;;;12.13;100.00
56668;BME280;42542;48.360;10.958;2023-04-28T09:09:29;95839.63;;;12.19;100.00
56668;BME280;42542;48.360;10.958;2023-04-28T09:12:38;95845.47;;;12.23;100.00
56668;BME280;42542;48.360;10.958;2023-04-28T09:15:39;95841.59;;;12.25;100.00
56668;BME280;42542;48.360;10.958;2023-04-28T09:18:55;95843.09;;;12.28;100.00
56668;BME280;42542;48.360;10.958;2023-04-28T09:21:57;95834.03;;;12.29;100.00
56668;BME280;42542;48.360;10.958;2023-04-28T09:25:12;95834.69;;;12.31;100.00
56668;BME280;42542;48.360;10.958;2023-04-28T09:28:21;95840.06;;;12.31;100.00
56668;BME280;42542;48.360;10.958;2023-04-28T09:31:24;95836.06;;;12.27;100.00
56668;BME280;42542;48.360;10.958;2023-04-28T09:34:50;95836.72;;;12.29;100.00
56668;BME280;42542;48.360;10.958;2023-04-28T09:37:57;95841.06;;;12.30;100.00
56668;BME280;42542;48.360;10.958;2023-04-28T09:41:01;95843.09;;;12.28;100.00
56668;BME280;42542;48.360;10.958;2023-04-28T09:44:18;95833.09;;;12.22;100.00
56668;BME280;42542;48.360;10.958;2023-04-28T09:47:22;95825.22;;;12.20;100.00
56668;BME280;42542;48.360;10.958;2023-04-28T09:50:25;95835.94;;;12.20;100.00
56668;BME280;42542;48.360;10.958;2023-04-28T09:53:28;95838.63;;;12.20;100.00
56668;BME280;42542;48.360;10.958;2023-04-28T09:56:32;95831.97;;;12.16;100.00
56668;BME280;42542;48.360;10.958;2023-04-28T09:59:35;95853.88;;;12.20;100.00
56668;BME280;42542;48.360;10.958;2023-04-28T10:02:37;95851.38;;;12.18;100.00
56668;BME280;42542;48.360;10.958;2023-04-28T10:05:45;95851.56;;;12.17;100.00
56668;BME280;42542;48.360;10.958;2023-04-28T10:08:49;95858.78;;;12.16;100.00
56668;BME280;42542;48.360;10.958;2023-04-28T10:11:52;95841.19;;;12.13;100.00
56668;BME280;42542;48.360;10.958;2023-04-28T10:14:55;95842.88;;;12.15;100.00
56668;BME280;42542;48.360;10.958;2023-04-28T10:17:58;95835.38;;;12.10;100.00
56668;BME280;42542;48.360;10.958;2023-04-28T10:21:02;95841.19;;;12.13;100.00
56668;BME280;42542;48.360;10.958;2023-04-28T10:24:12;95839.34;;;12.14;100.00
56668;BME280;42542;48.360;10.958;2023-04-28T10:27:16;95830.81;;;12.10;100.00
56668;BME280;42542;48.360;10.958;2023-04-28T10:30:20;95836.00;;;12.12;100.00
56668;BME280;42542;48.360;10.958;2023-04-28T10:33:34;95835.50;;;12.17;100.00
56668;BME280;42542;48.360;10.958;2023-04-28T10:47:00;95835.88;;;12.28;100.00
56668;BME280;42542;48.360;10.958;2023-04-28T10:50:08;95842.72;;;12.31;100.00
56668;BME280;42542;48.360;10.958;2023-04-28T10:53:10;95857.31;;;12.28;100.00
56668;BME280;42542;48.360;10.958;2023-04-28T10:56:21;95868.69;;;12.30;100.00
56668;BME280;42542;48.360;10.958;2023-04-28T10:59:29;95864.53;;;12.28;100.00
56668;BME280;42542;48.360;10.958;2023-04-28T11:02:41;95866.66;;;12.32;100.00
56668;BME280;42542;48.360;10.958;2023-04-28T11:06:20;95868.81;;;12.37;100.00
56668;BME280;42542;48.360;10.958;2023-04-28T11:09:48;95859.75;;;12.38;100.00
56668;BME280;42542;48.360;10.958;2023-04-28T11:13:24;95853.38;;;12.39;100.00
56668;BME280;42542;48.360;10.958;2023-04-28T11:16:28;95848.03;;;12.39;100.00
56668;BME280;42542;48.360;10.958;2023-04-28T11:19:33;95853.47;;;12.45;100.00
56668;BME280;42542;48.360;10.958;2023-04-28T11:22:36;95848.56;;;12.49;100.00
56668;BME280;42542;48.360;10.958;2023-04-28T11:25:54;95837.66;;;12.50;100.00
56668;BME280;42542;48.360;10.958;2023-04-28T11:28:57;95833.41;;;12.56;100.00
56668;BME280;42542;48.360;10.958;2023-04-28T11:32:03;95841.38;;;12.64;100.00
56668;BME280;42542;48.360;10.958;2023-04-28T11:35:05;95834.44;;;12.70;100.00
56668;BME280;42542;48.360;10.958;2023-04-28T11:38:11;95822.97;;;12.76;100.00
56668;BME280;42542;48.360;10.958;2023-04-28T11:41:13;95822.53;;;12.87;100.00
56668;BME280;42542;48.360;10.958;2023-04-28T11:44:17;95825.47;;;12.92;100.00
56668;BME280;42542;48.360;10.958;2023-04-28T11:47:30;95818.16;;;13.01;100.00
56668;BME280;42542;48.360;10.958;2023-04-28T11:50:45;95831.66;;;13.07;100.00
56668;BME280;42542;48.360;10.958;2023-04-28T11:53:54;95835.78;;;13.18;100.00
56668;BME280;42542;48.360;10.958;2023-04-28T11:57:01;95835.63;;;13.26;100.00
56668;BME280;42542;48.360;10.958;2023-04-28T12:00:14;95835.94;;;13.31;100.00
56668;BME280;42542;48.360;10.958;2023-04-28T12:03:22;95837.59;;;13.32;100.00
56668;BME280;42542;48.360;10.958;2023-04-28T12:06:25;95836.00;;;13.38;100.00
56668;BME280;42542;48.360;10.958;2023-04-28T12:09:27;95838.94;;;13.43;100.00
56668;BME280;42542;48.360;10.958;2023-04-28T12:12:30;95842.94;;;13.47;100.00
56668;BME280;42542;48.360;10.958;2023-04-28T12:15:50;95840.75;;;13.57;100.00
56668;BME280;42542;48.360;10.958;2023-04-28T12:18:58;95839.56;;;13.59;100.00
56668;BME280;42542;48.360;10.958;2023-04-28T12:22:05;95835.41;;;13.57;100.00
56668;BME280;42542;48.360;10.958;2023-04-28T12:25:10;95842.75;;;13.69;100.00
56668;BME280;42542;48.360;10.958;2023-04-28T12:28:12;95839.59;;;13.81;100.00
56668;BME280;42542;48.360;10.958;2023-04-28T12:31:20;95839.84;;;13.86;100.00
56668;BME280;42542;48.360;10.958;2023-04-28T12:34:30;95833.50;;;13.93;100.00
56668;BME280;42542;48.360;10.958;2023-04-28T12:37:34;95838.94;;;14.00;100.00
56668;BME280;42542;48.360;10.958;2023-04-28T12:40:39;95843.47;;;13.99;100.00
56668;BME280;42542;48.360;10.958;2023-04-28T12:43:42;95846.16;;;13.99;100.00
56668;BME280;42542;48.360;10.958;2023-04-28T12:46:44;95845.56;;;13.97;100.00
56668;BME280;42542;48.360;10.958;2023-04-28T12:49:48;95860.84;;;13.97;100.00
56668;BME280;42542;48.360;10.958;2023-04-28T12:52:53;95845.09;;;13.94;100.00
56668;BME280;42542;48.360;10.958;2023-04-28T12:55:57;95848.59;;;13.94;100.00
56668;BME280;42542;48.360;10.958;2023-04-28T12:58:59;95849.19;;;13.90;100.00
56668;BME280;42542;48.360;10.958;2023-04-28T13:02:07;95847.53;;;13.89;100.00
56668;BME280;42542;48.360;10.958;2023-04-28T13:05:09;95852.25;;;13.87;100.00
56668;BME280;42542;48.360;10.958;2023-04-28T13:08:10;95855.31;;;13.84;100.00
56668;BME280;42542;48.360;10.958;2023-04-28T13:11:17;95845.78;;;13.81;100.00
56668;BME280;42542;48.360;10.958;2023-04-28T13:14:25;95845.59;;;13.83;100.00
56668;BME280;42542;48.360;10.958;2023-04-28T13:17:28;95844.00;;;13.88;100.00
56668;BME280;42542;48.360;10.958;2023-04-28T13:20:30;95835.75;;;13.90;100.00
56668;BME280;42542;48.360;10.958;2023-04-28T13:23:32;95839.91;;;13.92;100.00
56668;BME280;42542;48.360;10.958;2023-04-28T13:26:38;95838.03;;;13.93;100.00
56668;BME280;42542;48.360;10.958;2023-04-28T13:29:40;95827.94;;;13.95;100.00
56668;BME280;42542;48.360;10.958;2023-04-28T13:32:42;95822.16;;;13.98;100.00
56668;BME280;42542;48.360;10.958;2023-04-28T13:35:48;95828.38;;;13.98;100.00
56668;BME280;42542;48.360;10.958;2023-04-28T13:38:55;95829.66;;;14.02;100.00
56668;BME280;42542;48.360;10.958;2023-04-28T13:41:59;95816.22;;;14.02;100.00
56668;BME280;42542;48.360;10.958;2023-04-28T13:45:04;95822.88;;;14.06;100.00
56668;BME280;42542;48.360;10.958;2023-04-28T13:48:06;95823.91;;;14.05;100.00
56668;BME280;42542;48.360;10.958;2023-04-28T13:51:08;95811.03;;;14.01;100.00
56668;BME280;42542;48.360;10.958;2023-04-28T13:54:10;95817.06;;;14.03;100.00
56668;BME280;42542;48.360;10.958;2023-04-28T13:57:13;95813.56;;;14.02;100.00
56668;BME280;42542;48.360;10.958;2023-04-28T14:00:15;95821.44;;;14.04;100.00
56668;BME280;42542;48.360;10.958;2023-04-28T14:03:18;95810.47;;;14.05;100.00
56668;BME280;42542;48.360;10.958;2023-04-28T14:06:22;95816.28;;;14.09;100.00
56668;BME280;42542;48.360;10.958;2023-04-28T14:09:24;95812.41;;;14.12;100.00
56668;BME280;42542;48.360;10.958;2023-04-28T14:12:27;95818.38;;;14.14;100.00
56668;BME280;42542;48.360;10.958;2023-04-28T14:15:30;95820.47;;;14.12;100.00
56668;BME280;42542;48.360;10.958;2023-04-28T14:18:33;95804.13;;;14.13;100.00
56668;BME280;42542;48.360;10.958;2023-04-28T14:21:35;95808.28;;;14.16;100.00
56668;BME280;42542;48.360;10.958;2023-04-28T14:24:38;95812.00;;;14.15;100.00
56668;BME280;42542;48.360;10.958;2023-04-28T14:27:40;95813.84;;;14.14;100.00
56668;BME280;42542;48.360;10.958;2023-04-28T14:30:42;95812.41;;;14.12;100.00
56668;BME280;42542;48.360;10.958;2023-04-28T14:33:45;95803.28;;;14.13;100.00
56668;BME280;42542;48.360;10.958;2023-04-28T14:36:47;95804.13;;;14.13;100.00
56668;BME280;42542;48.360;10.958;2023-04-28T14:39:49;95808.47;;;14.14;100.00
56668;BME280;42542;48.360;10.958;2023-04-28T14:42:51;95813.19;;;14.12;100.00
56668;BME280;42542;48.360;10.958;2023-04-28T14:45:53;95816.34;;;14.16;100.00
56668;BME280;42542;48.360;10.958;2023-04-28T14:48:56;95807.03;;;14.12;100.00
56668;BME280;42542;48.360;10.958;2023-04-28T14:51:58;95812.63;;;14.17;100.00
56668;BME280;42542;48.360;10.958;2023-04-28T14:55:02;95807.44;;;14.15;100.00
56668;BME280;42542;48.360;10.958;2023-04-28T14:58:05;95807.25;;;14.17;100.00
56668;BME280;42542;48.360;10.958;2023-04-28T15:01:09;95802.06;;;14.15;100.00
56668;BME280;42542;48.360;10.958;2023-04-28T15:04:11;95799.56;;;14.14;100.00
56668;BME280;42542;48.360;10.958;2023-04-28T15:07:13;95796.06;;;14.13;100.00
56668;BME280;42542;48.360;10.958;2023-04-28T15:10:19;95797.72;;;14.14;100.00
56668;BME280;42542;48.360;10.958;2023-04-28T15:13:20;95820.47;;;14.12;100.00
56668;BME280;42542;48.360;10.958;2023-04-28T15:16:25;95820.84;;;14.08;100.00
56668;BME280;42542;48.360;10.958;2023-04-28T15:19:27;95822.25;;;14.04;100.00
56668;BME280;42542;48.360;10.958;2023-04-28T15:22:30;95802.16;;;14.00;100.00
56668;BME280;42542;48.360;10.958;2023-04-28T15:25:33;95804.66;;;14.02;100.00
56668;BME280;42542;48.360;10.958;2023-04-28T15:28:35;95805.47;;;14.02;100.00
56668;BME280;42542;48.360;10.958;2023-04-28T15:31:37;95798.06;;;14.04;100.00
56668;BME280;42542;48.360;10.958;2023-04-28T15:34:41;95800.75;;;14.04;100.00
56668;BME280;42542;48.360;10.958;2023-04-28T15:37:45;95798.06;;;14.04;100.00
56668;BME280;42542;48.360;10.958;2023-04-28T15:40:54;95796.41;;;14.03;100.00
56668;BME280;42542;48.360;10.958;2023-04-28T15:43:56;95788.34;;;14.03;100.00
56668;BME280;42542;48.360;10.958;2023-04-28T15:47:01;95783.16;;;14.02;100.00
56668;BME280;42542;48.360;10.958;2023-04-28T15:50:06;95775.28;;;14.00;100.00
56668;BME280;42542;48.360;10.958;2023-04-28T15:53:09;95779.81;;;14.00;100.00
56668;BME280;42542;48.360;10.958;2023-04-28T15:56:13;95796.34;;;13.97;100.00
56668;BME280;42542;48.360;10.958;2023-04-28T15:59:15;95814.50;;;13.95;100.00
56668;BME280;42542;48.360;10.958;2023-04-28T16:02:20;95835.53;;;13.91;100.00
56668;BME280;42542;48.360;10.958;2023-04-28T16:05:23;95834.47;;;13.86;100.00
56668;BME280;42542;48.360;10.958;2023-04-28T16:08:25;95820.13;;;13.79;100.00
56668;BME280;42542;48.360;10.958;2023-04-28T16:11:29;95803.38;;;13.77;100.00